• pl
  • eng

Awiacja
WIADOMOŚCI
ostatnia aktualizacja: 17.04.2020 19:04
Szanowni Państwo,

mając na uwadze sytuację związaną z pandemią wywołaną koronawirusem SARS-Cov-2 oraz w trosce o bezpieczeństwo Państwa oraz naszych pracowników, IMGW-PIB podjął decyzję o przeniesieniu kolejnej edycji Szkoły Meteorologii Lotniczej na przyszły rok. W tej chwili podanie dokładnego terminu szkoły nie jest możliwe, ale jak tylko będzie znany zostanie ogłoszony na naszych stronach internetowych, do których śledzenia serdecznie zapraszamy.

TAF FT 18:30 28.11.2020
  • WIND
  • SIGNIFICANT EURO
  • SIGNIFICANT
  • SIGMET
  • AIRMET
  • TAF FC
  • TAF FT
  • METAR GG30
  • METAR GG00


TAF EPBY 281730Z 2818/2918 32006KT 9999 BKN020
TEMPO 2819/2904 5000 -RA BR SCT008 BKN014
BECMG 2901/2903 02008KT
PROB30 TEMPO 2901/2904 3000 -RASN BR BKN006 OVC012=

TAF EPGD 281730Z 2818/2918 36010KT 9999 SCT020 BKN040
TEMPO 2818/2822 4000 SHRA BKN007 BKN012CB
TEMPO 2822/2918 3000 SHRASN BR BKN007 BKN012CB
PROB40 TEMPO 2900/2913 1600 SHSNRA BR BKN004 BKN007CB
BECMG 2902/2904 VRB02KT
PROB30 TEMPO 2903/2910 0800 SHSN BKN001=

TAF EPKK 281730Z 2818/2918 31005KT 9999 BKN030
TEMPO 2821/2909 1500 SN BKN006
TEMPO 2909/2915 3000 -SN BKN014=

TAF EPKT 281730Z 2818/2918 32005KT 9999 SCT040
TEMPO 2821/2909 1500 SN BKN004
TEMPO 2909/2918 4000 -SN BKN009=

TAF EPLL 281730Z 2818/2918 36008KT 9999 -SN BKN020
TEMPO 2818/2918 BKN014
PROB40 TEMPO 2819/2904 1500 SHRASN BR BKN006 BKN012CB
TEMPO 2904/2918 -SHSN SCT007 BKN012CB=

TAF EPMO 281730Z 2818/2918 33006KT 9999 -SN BKN016
TEMPO 2818/2905 BKN012
PROB40 TEMPO 2818/2906 1500 SHSN BR BKN004 BKN008CB
TEMPO 2906/2912 -SHSN SCT005 BKN010CB=

TAF EPPO 281730Z 2818/2918 31005KT 9999 BKN025
TEMPO 2818/2821 BKN013
BECMG 2821/2824 BKN010
TEMPO 2900/2908 4000 -RA BR BKN004 OVC006
BECMG 2908/2911 BKN030=

TAF EPRZ 281730Z 2818/2918 34003KT 9999 BKN015
TEMPO 2818/2909 1500 SN BR BKN003
TEMPO 2909/2918 4000 -SN BKN005=

TAF EPSC 281730Z 2818/2918 VRB02KT 7000 SCT045
TEMPO 2818/2908 1600 BR BKN003 BKN006
PROB40 TEMPO 2818/2907 0800 FG OVC001
PROB30 2818/2906 0300 FZFG
BECMG 2903/2906 35010KT
BECMG 2907/2910 -RA BKN012 BKN020
TEMPO 2907/2918 4000 SHRA SCT004 BKN007CB=

TAF EPWA 281730Z 2818/2918 33006KT 9999 -SN BKN018
TEMPO 2818/2905 BKN012
PROB40 TEMPO 2820/2906 1500 SHSN BR BKN006 BKN010CB
TEMPO 2906/2912 -SHSN SCT008 BKN014CB=

TAF EPWR 281730Z 2818/2918 32006KT 9999 BKN030
BECMG 2821/2823 OVC006
TEMPO 2823/2911 3000 -RASN BR BKN004 OVC006
BECMG 2911/2913 BKN025=
Awiacja.imgw.pl jest pogodowym serwisem informacyjnym
Instytutu Meteorologii i Gospodarki Wodnej Państwowego Instytutu Badawczego.
Copyright IMGW PIB 2009-2019© Wszelkie prawa zastrzeżone.